Bloomington, Nebraska
Current Conditions -  °F | °C
As of 9:55 PM on Saturday 20 Dec 2014 (Local Time) from KHDE Reporting Station
Clear Clear  
Wind Chill: 32°   Ceiling: Unl
Heat Index: 32°   Visibility: 10mi
Dew Point: 28°   Wind: 0mph
Humidity: 86%   Direction: NA
Pressure: 29.93"   Gusts: NA
Location:  40.09°N, 99.04°W
Report Text: KHDE 210355Z AUTO 00000KT 10SM CLR 00/M02 A2993 RMK AO2 T00011020
Loading
Personal Weather Stations






























Interactive Weather Map New forecast layout! Learn more

10-Day Weather Forecast

Advertisements
Track Severe Weather on mobile